createdAt,value
2022-08-05T00:28:29.437Z,99.99
2022-08-05T00:29:18.090Z,99.99
2022-08-05T00:30:18.141Z,99.99
2022-08-05T00:31:53.400Z,99.99
2022-08-05T00:32:18.295Z,99.99
2022-08-05T00:34:55.924Z,99.99
2022-08-05T00:34:55.925Z,99.99
2022-08-05T00:35:18.429Z,99.99
2022-08-05T00:37:11.391Z,99.99
2022-08-05T00:37:18.540Z,99.99
2022-08-05T00:38:18.563Z,99.99
2022-08-05T00:39:18.696Z,99.99
2022-08-05T00:40:26.622Z,99.99
2022-08-05T00:41:18.764Z,99.99
2022-08-05T00:42:31.413Z,99.99
2022-08-05T00:43:18.832Z,99.99
2022-08-05T00:44:18.884Z,99.99
2022-08-05T00:45:28.093Z,99.99
2022-08-05T00:46:19.022Z,99.99
2022-08-05T00:47:19.045Z,99.99
2022-08-05T00:48:31.251Z,99.99
2022-08-05T00:49:19.150Z,99.99
2022-08-05T00:50:20.910Z,99.99
2022-08-05T00:51:50.572Z,99.99
2022-08-05T00:52:28.248Z,99.99
2022-08-05T00:54:01.063Z,99.99
2022-08-05T00:54:19.427Z,99.99
2022-08-05T00:55:19.470Z,99.99
2022-08-05T00:56:22.793Z,99.99
2022-08-05T00:57:21.256Z,99.99
2022-08-05T00:58:19.661Z,99.99
2022-08-05T00:59:19.681Z,99.99
2022-08-05T01:00:19.898Z,99.99
2022-08-05T01:01:19.803Z,99.99
2022-08-05T01:02:19.839Z,99.99
2022-08-05T01:03:22.538Z,99.99
2022-08-05T01:04:26.831Z,99.99
2022-08-05T01:05:20.026Z,99.99
2022-08-05T01:06:20.082Z,99.99
2022-08-05T01:07:20.107Z,99.99
2022-08-05T01:08:40.333Z,99.99
2022-08-05T01:09:20.402Z,99.99
2022-08-05T01:10:20.267Z,99.99
2022-08-05T01:11:22.646Z,99.99
2022-08-05T01:12:20.374Z,99.99
2022-08-05T01:13:22.393Z,99.99
2022-08-05T01:14:27.898Z,99.99
2022-08-05T01:15:35.239Z,99.99
2022-08-05T01:16:20.953Z,99.99
2022-08-05T01:17:21.223Z,99.99
2022-08-05T01:18:20.690Z,99.99
2022-08-05T01:19:20.742Z,99.99
2022-08-05T01:20:20.826Z,99.99
2022-08-05T01:21:22.780Z,99.99
2022-08-05T01:22:24.172Z,99.99
2022-08-05T01:23:23.259Z,99.99
2022-08-05T01:24:21.013Z,99.99
2022-08-05T01:25:21.064Z,99.99
2022-08-05T01:26:21.120Z,99.99
2022-08-05T01:27:22.099Z,99.99
2022-08-05T01:28:21.252Z,99.99
2022-08-05T01:29:23.150Z,99.99
2022-08-05T01:30:21.333Z,99.99
2022-08-05T01:31:21.388Z,99.99
2022-08-05T01:32:21.440Z,99.99
2022-08-05T01:33:21.524Z,99.99
2022-08-05T01:34:21.551Z,99.99
2022-08-05T01:35:51.153Z,99.99
2022-08-05T01:36:21.652Z,99.99
2022-08-05T01:37:25.144Z,99.99
2022-08-05T01:38:27.266Z,99.99
2022-08-05T01:39:45.693Z,99.99
2022-08-05T01:40:21.865Z,99.99
2022-08-05T01:41:44.512Z,99.99
2022-08-05T01:42:21.973Z,99.99
2022-08-05T01:43:24.056Z,99.99
2022-08-05T01:44:22.099Z,99.99
2022-08-05T01:45:22.131Z,99.99
2022-08-05T01:46:42.191Z,99.99
2022-08-05T01:47:22.401Z,99.99
2022-08-05T01:48:22.303Z,99.99
2022-08-05T01:49:24.131Z,99.99
2022-08-05T01:50:28.813Z,99.99
2022-08-05T01:51:22.451Z,99.99
2022-08-05T01:52:22.532Z,99.99
2022-08-05T01:53:54.993Z,99.99
2022-08-05T01:54:24.624Z,99.99
2022-08-05T01:55:22.667Z,99.99
2022-08-05T01:58:10.381Z,99.99
2022-08-05T01:58:11.649Z,99.99
2022-08-05T01:58:40.690Z,99.99
2022-08-05T01:59:22.881Z,99.99
2022-08-05T02:00:30.469Z,99.99
2022-08-05T02:01:25.342Z,99.99
2022-08-05T02:02:26.222Z,99.99
2022-08-05T02:03:31.276Z,99.99
2022-08-05T02:04:23.145Z,99.99
2022-08-05T02:05:23.467Z,99.99
2022-08-05T02:06:33.493Z,99.99
2022-08-05T02:07:23.484Z,99.99
2022-08-05T02:08:30.869Z,99.99
2022-08-05T02:09:23.410Z,99.99
2022-08-05T02:10:28.366Z,99.99
2022-08-05T02:11:23.832Z,99.99
2022-08-05T02:12:23.594Z,99.99
2022-08-05T02:13:23.627Z,99.99
2022-08-05T02:14:23.679Z,99.99
2022-08-05T02:15:23.731Z,99.99
2022-08-05T02:16:23.785Z,99.99
2022-08-05T02:18:28.745Z,99.99
2022-08-05T02:18:32.276Z,99.99
2022-08-05T02:19:23.943Z,99.99
2022-08-05T02:20:23.997Z,99.99
2022-08-05T02:21:24.048Z,99.99
2022-08-05T02:22:26.495Z,99.99
2022-08-05T02:23:24.181Z,99.99
2022-08-05T02:24:24.215Z,99.99
2022-08-05T02:25:24.289Z,99.99
2022-08-05T02:26:24.315Z,99.99
2022-08-05T02:27:29.898Z,99.99
2022-08-05T02:28:28.874Z,99.99
2022-08-05T02:29:58.000Z,99.99
2022-08-05T02:30:24.556Z,99.99
2022-08-05T02:31:24.581Z,99.99
2022-08-05T02:32:30.855Z,99.99
2022-08-05T02:33:35.950Z,99.99
2022-08-05T02:34:24.743Z,99.99
2022-08-05T02:35:28.164Z,99.99
2022-08-05T02:36:24.848Z,99.99
2022-08-05T02:37:25.144Z,99.99
2022-08-05T02:38:26.914Z,99.99
2022-08-05T02:39:25.063Z,99.99
2022-08-05T02:40:25.091Z,99.99
2022-08-05T02:41:29.009Z,99.99
2022-08-05T02:42:25.729Z,99.99
2022-08-05T02:43:25.219Z,99.99
2022-08-05T02:44:25.272Z,99.99
2022-08-05T02:45:25.589Z,99.99
2022-08-05T02:46:27.429Z,99.99
2022-08-05T02:47:25.571Z,99.99
2022-08-05T02:48:29.295Z,99.99
2022-08-05T02:49:25.541Z,99.99
2022-08-05T02:50:25.613Z,99.99
2022-08-05T02:51:28.222Z,99.99
2022-08-05T02:52:29.639Z,99.99
2022-08-05T02:53:25.752Z,99.99
2022-08-05T02:54:36.506Z,99.99
2022-08-05T02:55:54.093Z,99.99
2022-08-05T02:56:25.909Z,99.99
2022-08-05T02:58:10.618Z,99.99
2022-08-05T02:58:26.771Z,99.99
2022-08-05T02:59:26.950Z,99.99
2022-08-05T03:00:26.146Z,99.99
2022-08-05T03:01:27.190Z,99.99
2022-08-05T03:02:27.556Z,99.99
2022-08-05T03:03:26.280Z,99.99
2022-08-05T03:04:26.333Z,99.99
2022-08-05T03:06:54.113Z,99.99
2022-08-05T03:06:56.815Z,99.99
2022-08-05T03:08:00.705Z,99.99
2022-08-05T03:08:29.535Z,99.99
2022-08-05T03:09:36.130Z,99.99
2022-08-05T03:10:26.653Z,99.99
2022-08-05T03:11:54.714Z,99.99
2022-08-05T03:12:26.785Z,99.99
2022-08-05T03:13:27.716Z,99.99
2022-08-05T03:14:26.869Z,99.99
2022-08-05T03:15:26.923Z,99.99
2022-08-05T03:16:26.974Z,99.99
2022-08-05T03:17:27.052Z,99.99
2022-08-05T03:18:30.053Z,99.99
2022-08-05T03:19:33.702Z,99.99
2022-08-05T03:20:27.184Z,99.99
2022-08-05T03:21:28.963Z,99.99
2022-08-05T03:22:31.986Z,99.99
2022-08-05T03:23:27.346Z,99.99
2022-08-05T03:24:30.076Z,99.99
2022-08-05T03:25:32.762Z,99.99
2022-08-05T03:26:31.322Z,99.99
2022-08-05T03:27:29.618Z,99.99
2022-08-05T03:28:27.613Z,99.99
2022-08-05T03:29:45.357Z,99.99
2022-08-05T03:30:30.279Z,99.99
2022-08-05T03:31:57.122Z,99.99
2022-08-05T03:32:31.017Z,99.99
2022-08-05T03:33:32.241Z,99.99
2022-08-05T03:34:27.930Z,99.99
2022-08-05T03:35:28.019Z,99.99
2022-08-05T03:36:30.433Z,99.99
2022-08-05T03:37:28.091Z,99.99
2022-08-05T03:38:33.256Z,99.99
2022-08-05T03:39:28.270Z,99.99
2022-08-05T03:40:32.353Z,99.99
2022-08-05T03:41:33.230Z,99.99
2022-08-05T03:42:29.203Z,99.99
2022-08-05T03:44:08.730Z,99.99
2022-08-05T03:44:29.066Z,99.99
2022-08-05T03:45:28.546Z,99.99
2022-08-05T03:46:30.050Z,99.99
2022-08-05T03:47:30.532Z,99.99
2022-08-05T03:48:29.318Z,99.99
2022-08-05T03:49:30.995Z,99.99
2022-08-05T03:50:28.816Z,99.99
2022-08-05T03:52:37.866Z,99.99
2022-08-05T03:52:50.352Z,99.99
2022-08-05T03:55:06.959Z,99.99
2022-08-05T03:55:53.477Z,99.99
2022-08-05T03:56:06.287Z,99.99
2022-08-05T03:56:31.899Z,99.99
2022-08-05T03:59:47.011Z,99.99
2022-08-05T04:00:39.280Z,99.99
2022-08-05T04:01:39.386Z,99.99
2022-08-05T04:02:47.890Z,99.99
2022-08-05T04:03:39.441Z,99.99
2022-08-05T04:04:39.489Z,99.99
2022-08-05T04:05:40.221Z,99.99
2022-08-05T04:06:47.327Z,99.99
2022-08-05T04:07:57.324Z,99.99
2022-08-05T04:08:39.734Z,99.99
2022-08-05T04:09:39.756Z,99.99
2022-08-05T04:10:39.832Z,99.99
2022-08-05T04:11:47.342Z,99.99
2022-08-05T04:13:03.399Z,99.99
2022-08-05T04:13:50.103Z,99.99
2022-08-05T04:14:40.021Z,99.99
2022-08-05T04:16:03.374Z,99.99
2022-08-05T04:16:40.131Z,99.99
2022-08-05T04:17:56.639Z,99.99
2022-08-05T04:18:40.266Z,99.99
2022-08-05T04:19:40.287Z,99.99
2022-08-05T04:20:41.344Z,99.99
2022-08-05T04:22:09.624Z,99.99
2022-08-05T04:22:40.445Z,99.99
2022-08-05T04:24:01.100Z,99.99
2022-08-05T04:24:44.504Z,99.99
2022-08-05T04:26:00.329Z,99.99
2022-08-05T04:26:40.659Z,99.99
2022-08-05T04:27:43.766Z,99.99
2022-08-05T04:28:51.108Z,99.99
2022-08-05T04:29:40.813Z,99.99
2022-08-05T04:30:40.869Z,99.99
2022-08-05T04:31:40.958Z,99.99
2022-08-05T04:32:40.975Z,99.99
2022-08-05T04:34:19.273Z,99.99
2022-08-05T04:34:43.328Z,99.99
2022-08-05T04:36:11.255Z,99.99
2022-08-05T04:36:46.108Z,99.99
2022-08-05T04:38:01.647Z,99.99
2022-08-05T04:38:41.291Z,99.99
2022-08-05T04:39:41.445Z,99.99
2022-08-05T04:40:44.572Z,99.99
2022-08-05T04:41:41.451Z,99.99
2022-08-05T04:42:41.507Z,99.99
2022-08-05T04:43:48.304Z,99.99
2022-08-05T04:44:41.608Z,99.99
2022-08-05T04:45:48.224Z,99.99
2022-08-05T04:46:41.721Z,99.99
2022-08-05T04:47:44.923Z,99.99
2022-08-05T04:48:41.820Z,99.99
2022-08-05T04:50:03.040Z,99.99
2022-08-05T04:51:01.988Z,99.99
2022-08-05T04:51:41.983Z,99.99
2022-08-05T04:52:42.057Z,99.99
2022-08-05T04:53:42.083Z,99.99
2022-08-05T04:54:42.138Z,99.99
2022-08-05T04:56:15.025Z,99.99
2022-08-05T04:56:42.285Z,99.99
2022-08-05T04:57:42.294Z,99.99
2022-08-05T04:58:42.350Z,99.99
2022-08-05T04:59:42.401Z,99.99
2022-08-05T05:00:42.456Z,99.99
2022-08-05T05:02:06.002Z,99.99
2022-08-05T05:02:43.312Z,99.99
2022-08-05T05:03:42.799Z,99.99
2022-08-05T05:04:44.105Z,99.99
2022-08-05T05:06:39.567Z,99.99
2022-08-05T05:06:49.163Z,99.99
2022-08-05T05:07:45.666Z,99.99
2022-08-05T05:08:42.965Z,99.99
2022-08-05T05:09:42.933Z,99.99
2022-08-05T05:10:54.773Z,99.99
2022-08-05T05:11:54.355Z,99.99
2022-08-05T05:12:43.093Z,99.99
2022-08-05T05:13:43.615Z,99.99
2022-08-05T05:14:49.520Z,99.99
2022-08-05T05:15:57.909Z,99.99
2022-08-05T05:16:43.309Z,99.99
2022-08-05T05:17:56.988Z,99.99
2022-08-05T05:19:02.546Z,99.99
2022-08-05T05:19:44.160Z,99.99
2022-08-05T05:20:43.535Z,99.99
2022-08-05T05:21:43.565Z,99.99
2022-08-05T05:22:44.093Z,99.99
2022-08-05T05:24:04.035Z,99.99
2022-08-05T05:24:57.109Z,99.99
2022-08-05T05:25:43.776Z,99.99
2022-08-05T05:26:46.422Z,99.99
2022-08-05T05:27:45.339Z,99.99
2022-08-05T05:28:44.958Z,99.99
2022-08-05T05:30:04.859Z,99.99
2022-08-05T05:30:44.045Z,99.99
2022-08-05T05:31:46.321Z,99.99
2022-08-05T05:32:44.156Z,99.99
2022-08-05T05:33:59.663Z,99.99
2022-08-05T05:34:44.257Z,99.99
2022-08-05T05:35:44.348Z,99.99
2022-08-05T05:36:44.371Z,99.99
2022-08-05T05:37:59.625Z,99.99
2022-08-05T05:38:44.469Z,99.99
2022-08-05T05:39:44.537Z,99.99
2022-08-05T05:40:49.453Z,99.99
2022-08-05T05:41:44.657Z,99.99
2022-08-05T05:42:47.098Z,99.99
2022-08-05T05:43:58.329Z,99.99
2022-08-05T05:44:46.062Z,99.99
2022-08-05T05:45:48.253Z,99.99
2022-08-05T05:46:44.931Z,99.99
2022-08-05T05:48:06.371Z,99.99
2022-08-05T05:48:46.095Z,99.99
2022-08-05T05:49:45.066Z,99.99
2022-08-05T05:50:45.111Z,99.99
2022-08-05T05:51:50.018Z,99.99
2022-08-05T05:52:46.591Z,99.99
2022-08-05T05:53:46.146Z,99.99
2022-08-05T05:54:50.225Z,99.99
2022-08-05T05:55:52.162Z,99.99
2022-08-05T05:56:45.436Z,99.99
2022-08-05T05:57:52.284Z,99.99
2022-08-05T05:58:45.540Z,99.99
2022-08-05T05:59:45.594Z,99.99
2022-08-05T06:00:46.411Z,99.99
2022-08-05T06:01:57.322Z,99.99
2022-08-05T06:02:45.786Z,99.99
2022-08-05T06:04:01.771Z,99.99
2022-08-05T06:04:49.182Z,99.99
2022-08-05T06:05:45.908Z,99.99
2022-08-05T06:06:47.329Z,99.99
2022-08-05T06:08:01.218Z,99.99
2022-08-05T06:08:49.090Z,99.99
2022-08-05T06:09:59.909Z,99.99
2022-08-05T06:10:52.610Z,99.99
2022-08-05T06:12:01.713Z,99.99
2022-08-05T06:12:46.319Z,99.99
2022-08-05T06:13:50.482Z,99.99
2022-08-05T06:14:46.431Z,99.99
2022-08-05T06:16:30.644Z,99.99
2022-08-05T06:16:46.614Z,99.99
2022-08-05T06:17:53.609Z,99.99
2022-08-05T06:18:46.621Z,99.99
2022-08-05T06:19:56.283Z,99.99
2022-08-05T06:20:47.783Z,99.99
2022-08-05T06:21:49.623Z,99.99
2022-08-05T06:22:46.900Z,99.99
2022-08-05T06:23:46.923Z,99.99
2022-08-05T06:24:48.415Z,99.99
2022-08-05T06:26:12.976Z,99.99
2022-08-05T07:27:03.771Z,78.47
2022-08-05T07:28:08.287Z,76.61
2022-08-05T07:29:03.845Z,78.70
2022-08-05T07:30:27.292Z,74.59
2022-08-05T07:31:03.984Z,75.77
2022-08-05T07:32:04.099Z,76.42
2022-08-05T07:33:05.128Z,77.00
2022-08-05T07:34:04.130Z,77.53
2022-08-05T07:36:01.694Z,76.84
2022-08-05T07:36:20.822Z,76.06
2022-08-05T07:37:04.299Z,77.08
2022-08-05T08:01:27.752Z,81.45
2022-08-05T08:02:30.803Z,79.49
2022-08-05T08:03:44.590Z,79.58
2022-08-05T08:04:37.843Z,73.26
2022-08-05T08:05:27.902Z,73.36
2022-08-05T08:06:28.195Z,70.81
2022-08-05T08:07:28.653Z,72.86
2022-08-05T08:08:28.076Z,74.18
2022-08-05T08:09:29.079Z,71.04
2022-08-05T08:10:28.240Z,71.43
2022-08-05T08:11:47.451Z,68.79
2022-08-05T08:12:48.750Z,69.08
2022-08-05T08:13:29.313Z,68.98
2022-08-05T08:14:28.437Z,71.92
2022-08-05T08:16:33.300Z,70.51
2022-08-05T08:16:35.348Z,70.51
2022-08-05T08:17:28.617Z,75.81
2022-08-05T08:18:28.677Z,75.71
2022-08-05T08:20:10.232Z,72.86
2022-08-05T08:20:44.266Z,70.12
2022-08-05T08:21:28.854Z,69.89
2022-08-05T08:22:28.913Z,75.81
2022-08-05T08:24:01.193Z,70.81
2022-08-05T08:24:51.635Z,69.54
2022-08-05T08:25:59.980Z,71.69
2022-08-05T08:26:30.028Z,69.27
2022-08-05T08:27:39.846Z,71.43
2022-08-05T08:28:35.518Z,74.99
2022-08-05T08:30:05.916Z,73.03
2022-08-05T08:30:37.649Z,71.47
2022-08-05T08:31:29.485Z,73.33
2022-08-05T08:32:29.512Z,70.48
2022-08-05T08:33:29.572Z,71.89
2022-08-05T08:34:30.637Z,72.28
2022-08-05T08:35:35.136Z,71.50
2022-08-05T08:36:49.931Z,68.79
2022-08-05T08:37:29.836Z,69.24
2022-08-05T08:38:35.273Z,70.71
2022-08-05T08:39:29.983Z,69.83
2022-08-05T08:40:29.996Z,71.36
2022-08-05T08:41:50.697Z,71.75
2022-08-05T08:42:34.150Z,74.53
2022-08-05T08:45:18.466Z,71.50
2022-08-05T08:45:23.521Z,72.57
2022-08-05T08:45:30.494Z,71.40
2022-08-05T08:46:30.407Z,69.67
2022-08-05T08:48:05.947Z,75.94
2022-08-05T08:48:42.690Z,70.94
2022-08-05T08:50:14.208Z,69.67
2022-08-05T08:51:03.832Z,71.59
2022-08-05T08:52:03.025Z,70.61
2022-08-05T08:52:30.731Z,69.54
2022-08-05T08:53:30.788Z,71.79
2022-08-05T08:54:30.880Z,69.15
2022-08-05T08:56:01.964Z,69.50
2022-08-05T08:56:30.967Z,69.01
2022-08-05T08:57:42.377Z,70.06
2022-08-05T09:08:34.158Z,71.00
2022-08-05T09:09:02.258Z,70.51
2022-08-05T09:09:35.804Z,70.45
2022-08-05T09:10:35.038Z,71.89
2022-08-05T09:11:52.686Z,69.27
2022-08-05T09:12:35.400Z,69.15
2022-08-05T09:14:09.417Z,72.41
2022-08-05T09:14:56.854Z,70.12
2022-08-05T09:15:36.840Z,69.44
2022-08-05T09:16:35.946Z,69.21
2022-08-05T09:17:43.041Z,69.44
2022-08-05T09:18:39.012Z,69.44
2022-08-05T09:20:04.744Z,69.24
2022-08-05T09:20:37.267Z,69.73
2022-08-05T09:23:27.255Z,72.71
2022-08-05T09:24:24.410Z,68.52
2022-08-05T09:25:24.423Z,72.16
2022-08-05T11:08:02.405Z,69.18
2022-08-05T11:08:56.413Z,67.91
2022-08-05T11:10:09.499Z,65.62
2022-08-05T11:11:00.910Z,67.38
2022-08-05T11:11:56.644Z,66.43
2022-08-05T11:12:56.693Z,66.20
2022-08-05T11:13:58.301Z,65.25
2022-08-05T11:15:00.896Z,68.01
2022-08-05T11:16:00.688Z,66.83
2022-08-05T11:16:59.370Z,65.22
2022-08-05T11:18:03.912Z,67.48
2022-08-05T11:18:57.030Z,65.81
2022-08-05T11:20:17.163Z,65.65
2022-08-05T11:20:57.164Z,68.33
2022-08-05T11:21:57.927Z,67.94
2022-08-05T11:23:01.997Z,67.25
2022-08-05T11:24:05.286Z,65.81
2022-08-05T11:25:16.800Z,69.84
2022-08-05T11:26:04.251Z,71.93
2022-08-05T11:26:57.508Z,74.48
2022-08-05T11:28:00.774Z,74.44
2022-08-05T11:28:58.701Z,74.58
2022-08-05T11:29:57.693Z,73.04
2022-08-05T11:30:58.396Z,70.68
2022-08-05T11:32:01.044Z,71.51
2022-08-05T11:32:58.800Z,69.64
2022-08-05T11:33:58.615Z,68.37
2022-08-05T11:34:59.833Z,71.15
2022-08-05T11:36:04.491Z,70.26
2022-08-05T11:36:58.162Z,70.26
2022-08-05T11:38:37.397Z,70.86
2022-08-05T11:38:58.606Z,69.32
2022-08-05T11:40:03.248Z,67.87
2022-08-05T11:41:01.374Z,65.81
2022-08-05T11:42:04.276Z,68.40
2022-08-05T11:42:58.497Z,70.98
2022-08-05T11:43:58.607Z,70.89
2022-08-05T11:44:58.622Z,70.16
2022-08-05T11:46:32.110Z,71.53
2022-08-05T11:47:14.179Z,71.57
2022-08-05T11:47:58.867Z,69.54
2022-08-05T11:48:58.911Z,67.02
2022-08-05T11:49:58.930Z,69.02
2022-08-05T11:50:59.813Z,70.00
2022-08-05T11:51:59.130Z,71.21
2022-08-05T11:52:59.166Z,70.16
2022-08-05T11:53:59.185Z,68.95
2022-08-05T11:54:59.245Z,70.20
2022-08-05T11:55:59.305Z,70.68
2022-08-05T11:56:59.369Z,72.13
2022-08-05T11:58:09.175Z,72.84
2022-08-05T11:58:59.526Z,74.24
2022-08-05T11:59:59.791Z,72.80
2022-08-05T12:00:59.644Z,72.76
2022-08-05T12:01:59.687Z,74.71
2022-08-05T12:03:01.349Z,73.64
2022-08-05T12:04:20.874Z,75.34
2022-08-05T12:05:00.149Z,75.45
2022-08-05T12:05:59.996Z,76.07
2022-08-05T12:06:59.994Z,71.96
2022-08-05T12:08:07.283Z,70.03
2022-08-05T12:09:00.144Z,67.94
2022-08-05T12:10:04.407Z,69.71
2022-08-05T12:11:05.486Z,69.05
2022-08-05T12:12:00.311Z,69.93
2022-08-05T12:13:00.504Z,70.13
2022-08-05T12:14:04.349Z,71.21
2022-08-05T12:15:00.505Z,71.08
2022-08-05T12:16:00.663Z,71.69
2022-08-05T12:17:00.655Z,73.65
2022-08-05T12:18:03.868Z,73.03
2022-08-05T12:19:03.366Z,75.71
2022-08-05T12:20:27.313Z,75.26
2022-08-05T12:21:00.877Z,75.02
2022-08-05T12:22:01.096Z,75.90
2022-08-05T12:23:01.014Z,75.42
2022-08-05T12:24:05.130Z,75.42
2022-08-05T12:25:01.132Z,74.96
2022-08-05T12:26:01.199Z,72.64
2022-08-05T12:27:09.470Z,72.45
2022-08-05T12:28:02.457Z,72.05
2022-08-05T12:29:03.161Z,71.86
2022-08-05T12:30:03.303Z,73.69
2022-08-05T12:31:01.911Z,70.72
2022-08-05T12:32:02.000Z,71.53
2022-08-05T12:33:07.264Z,70.65
2022-08-05T12:34:01.697Z,71.66
2022-08-05T12:41:59.770Z,68.96
2022-08-05T12:42:54.659Z,67.81
2022-08-05T12:43:55.398Z,67.41
2022-08-05T12:45:17.277Z,67.71
2022-08-05T12:45:54.880Z,65.71
2022-08-05T12:46:54.926Z,67.32
2022-08-05T12:48:01.493Z,69.12
2022-08-05T12:48:55.037Z,67.05
2022-08-05T12:50:03.284Z,69.64
2022-08-05T12:50:55.160Z,67.87
2022-08-05T12:52:13.481Z,69.25
2022-08-05T12:52:55.320Z,71.64
2022-08-05T12:54:16.959Z,71.53
2022-08-05T12:54:55.570Z,74.57
2022-08-05T12:57:28.844Z,75.55
2022-08-05T12:58:50.750Z,72.74
2022-08-05T13:02:02.216Z,72.02
2022-08-05T13:02:02.520Z,73.43
2022-08-05T13:02:50.987Z,72.32
2022-08-05T13:03:49.586Z,71.01
2022-08-05T13:04:52.509Z,69.31
2022-08-05T13:05:51.186Z,70.98
2022-08-05T13:06:52.228Z,70.10
2022-08-05T13:08:00.572Z,70.20
2022-08-05T13:08:52.444Z,69.28
2022-08-05T13:09:51.161Z,68.76
2022-08-05T13:11:00.884Z,69.24
2022-08-05T13:14:05.324Z,71.17
2022-08-05T13:14:19.378Z,71.08
2022-08-05T13:15:24.520Z,71.89
2022-08-05T13:16:39.896Z,71.27
2022-08-05T13:17:20.495Z,70.68
2022-08-05T13:18:19.766Z,71.66
2022-08-05T13:19:19.753Z,70.91
2022-08-05T13:20:23.649Z,70.56
2022-08-05T13:21:18.960Z,70.06
2022-08-05T13:22:34.341Z,71.34
2022-08-05T13:23:22.691Z,69.81
2022-08-05T13:24:36.206Z,70.82
2022-08-05T13:25:22.228Z,70.23
2022-08-05T13:26:24.075Z,68.37
2022-08-05T13:27:23.202Z,69.57
2022-08-05T13:28:26.954Z,69.22
2022-08-05T14:48:35.773Z,70.00
2022-08-05T14:49:08.891Z,68.20
2022-08-05T14:50:18.336Z,69.47
2022-08-05T14:51:08.884Z,69.37
2022-08-05T14:52:10.162Z,70.75
2022-08-05T14:53:09.307Z,69.86
2022-08-05T14:54:28.504Z,68.59
2022-08-05T14:55:09.349Z,70.16
2022-08-05T14:56:09.193Z,69.57
2022-08-05T14:57:09.770Z,71.62
2022-08-05T14:58:12.046Z,70.06
2022-08-05T14:59:09.438Z,68.40
2022-08-05T15:00:09.437Z,69.12
2022-08-05T15:01:16.034Z,68.23
2022-08-05T15:02:15.012Z,67.25
2022-08-05T15:03:09.670Z,66.96
2022-08-05T15:04:09.697Z,68.04
2022-08-05T15:05:13.645Z,66.37
2022-08-05T15:06:14.775Z,67.05
2022-08-05T15:07:09.860Z,67.94
2022-08-05T15:08:18.069Z,68.98
2022-08-05T15:09:10.037Z,69.96
2022-08-05T15:10:10.129Z,66.44
2022-08-05T15:11:10.113Z,68.98
2022-08-05T15:12:17.312Z,68.40
2022-08-05T15:13:12.007Z,69.93
2022-08-05T15:14:10.406Z,69.05
2022-08-05T15:15:10.776Z,67.58
2022-08-05T15:16:10.950Z,70.12
2022-08-05T15:17:45.633Z,70.81
2022-08-05T15:18:11.619Z,71.59
2022-08-05T15:19:23.282Z,73.16
2022-08-05T15:20:18.834Z,73.71
2022-08-05T15:21:11.180Z,74.85
2022-08-05T15:22:11.066Z,76.81
2022-08-05T15:23:10.808Z,75.34
2022-08-05T15:24:10.930Z,75.24
2022-08-05T15:25:14.134Z,75.21
2022-08-05T15:26:11.185Z,76.57
2022-08-05T15:27:11.120Z,76.97
2022-08-05T15:28:13.406Z,75.99
2022-08-05T15:29:11.165Z,73.64
2022-08-05T15:30:14.132Z,71.88
2022-08-05T15:31:12.447Z,87.34
2022-08-05T15:32:13.349Z,92.38
2022-08-05T16:10:17.341Z,98.34
2022-08-05T16:10:50.177Z,99.71
2022-08-05T16:11:53.036Z,97.75
2022-08-05T16:12:50.300Z,98.24
2022-08-05T16:13:50.441Z,97.85
2022-08-05T16:14:50.390Z,96.14
2022-08-05T16:15:50.454Z,96.24
2022-08-05T16:16:50.508Z,96.24
2022-08-05T16:17:57.418Z,94.20
2022-08-05T16:19:09.859Z,95.07
2022-08-05T16:20:04.905Z,92.93
2022-08-05T16:20:50.726Z,90.78
2022-08-05T16:22:00.733Z,89.12
2022-08-05T16:22:50.881Z,90.83
2022-08-05T16:23:53.708Z,89.85
2022-08-05T16:24:51.990Z,90.34
2022-08-05T16:25:55.883Z,91.31
2022-08-05T16:26:51.068Z,88.68
2022-08-05T16:28:05.348Z,87.80
2022-08-05T16:28:51.179Z,89.17
2022-08-05T16:29:51.376Z,88.78
2022-08-05T16:30:51.306Z,88.09
2022-08-05T16:31:57.062Z,86.93
2022-08-05T16:32:51.445Z,89.12
2022-08-05T16:33:51.516Z,89.81
2022-08-05T16:34:51.561Z,90.88
2022-08-05T16:35:53.051Z,90.78
2022-08-05T16:36:51.639Z,90.59
2022-08-05T16:38:16.225Z,91.27
2022-08-05T16:38:54.283Z,90.59
2022-08-05T16:40:06.347Z,90.98
2022-08-05T16:40:59.897Z,90.88
2022-08-05T16:42:13.748Z,90.88
2022-08-05T16:42:51.983Z,90.69
2022-08-05T16:43:56.246Z,90.69
2022-08-05T16:44:54.183Z,90.00
2022-08-05T16:46:04.728Z,89.96
2022-08-05T16:46:55.411Z,90.06
2022-08-05T16:47:55.589Z,89.96
2022-08-05T16:48:52.654Z,91.13
2022-08-05T16:49:52.373Z,90.45
2022-08-05T16:50:52.475Z,89.08
2022-08-05T16:51:54.850Z,88.10
2022-08-05T16:52:52.744Z,88.89
2022-08-05T16:54:04.304Z,88.69
2022-08-05T16:54:52.671Z,88.49
2022-08-05T16:55:52.737Z,89.08
2022-08-05T16:56:52.776Z,89.08
2022-08-05T16:58:00.021Z,89.96
2022-08-05T16:58:52.940Z,89.18
2022-08-05T17:00:01.555Z,89.96
2022-08-05T17:00:53.092Z,90.79
2022-08-05T17:01:55.871Z,92.44
2022-08-05T17:02:53.121Z,93.52
2022-08-05T17:03:53.185Z,94.30
2022-08-05T17:04:53.239Z,94.44
2022-08-05T17:05:54.282Z,93.71
2022-08-05T17:06:53.783Z,93.66
2022-08-05T17:07:54.983Z,95.42
2022-08-05T17:08:54.473Z,95.22
2022-08-05T17:09:57.770Z,93.85
2022-08-05T17:10:53.572Z,93.76
2022-08-05T17:12:00.000Z,93.76
2022-08-05T17:12:53.807Z,94.73
2022-08-05T17:14:00.200Z,93.95
2022-08-05T17:14:53.858Z,94.05
2022-08-05T17:16:02.812Z,95.32
2022-08-05T17:16:53.978Z,94.93
2022-08-05T17:17:55.236Z,93.66
2022-08-05T17:18:54.065Z,93.76
2022-08-05T17:19:55.669Z,93.18
2022-08-05T17:20:54.142Z,93.66
2022-08-05T17:21:54.205Z,94.05
2022-08-05T17:22:55.630Z,93.85
2022-08-05T17:24:05.988Z,93.85
2022-08-05T17:24:57.421Z,94.54
2022-08-05T17:25:54.427Z,93.95
2022-08-05T17:26:55.319Z,95.07
2022-08-05T17:27:54.553Z,95.51
2022-08-05T17:28:54.663Z,96.30
2022-08-05T17:30:00.847Z,95.56
2022-08-05T17:30:54.716Z,95.86
2022-08-05T17:31:57.020Z,95.37
2022-08-05T17:32:54.830Z,94.78
2022-08-05T17:33:54.915Z,95.17
2022-08-05T17:34:54.935Z,96.05
2022-08-05T17:36:08.159Z,95.76
2022-08-05T17:36:55.074Z,96.93
2022-08-05T17:38:00.612Z,96.49
2022-08-05T17:38:55.242Z,97.75
2022-08-05T17:39:55.995Z,97.03
2022-08-05T17:40:55.280Z,96.88
2022-08-05T17:42:18.954Z,97.22
2022-08-05T17:42:55.436Z,97.56
2022-08-05T17:43:55.448Z,97.08
2022-08-05T17:44:55.523Z,96.98
2022-08-05T17:45:55.643Z,96.00
2022-08-05T17:46:55.650Z,96.39
2022-08-05T17:47:56.309Z,96.59
2022-08-05T17:48:55.721Z,96.93
2022-08-05T17:50:03.615Z,97.52
2022-08-05T17:50:55.846Z,97.03
2022-08-05T17:51:55.955Z,96.73
2022-08-05T17:52:55.950Z,96.15
2022-08-05T17:53:56.004Z,96.54
2022-08-05T17:54:56.066Z,96.73
2022-08-05T17:55:56.128Z,97.13
2022-08-05T17:56:56.248Z,98.29
2022-08-05T17:57:56.373Z,97.81
2022-08-05T17:58:56.303Z,97.56
2022-08-05T18:00:03.734Z,97.47
2022-08-05T18:00:57.096Z,97.47
2022-08-05T18:01:56.479Z,97.66
2022-08-05T18:02:56.764Z,96.98
2022-08-05T18:03:59.200Z,96.98
2022-08-05T18:04:56.680Z,94.84
2022-08-05T18:06:01.876Z,96.11
2022-08-05T18:07:00.569Z,96.78
2022-08-05T18:07:57.005Z,97.08
2022-08-05T18:08:56.858Z,96.11
2022-08-05T18:09:58.677Z,93.77
2022-08-05T18:10:58.580Z,89.49
2022-08-05T18:11:57.193Z,87.74
2022-08-05T18:12:57.085Z,87.06
2022-08-05T18:13:57.129Z,86.77
2022-08-05T18:14:57.186Z,86.87
2022-08-05T18:15:57.262Z,86.92
2022-08-05T18:16:57.322Z,87.25
2022-08-05T18:17:58.739Z,86.04
2022-08-05T18:18:58.023Z,85.41
2022-08-05T18:19:57.482Z,85.46
2022-08-05T18:20:57.515Z,84.39
2022-08-05T18:22:09.568Z,85.94
2022-08-05T18:22:57.760Z,85.46
2022-08-05T18:23:57.682Z,85.07
2022-08-05T18:24:57.737Z,85.56
2022-08-05T18:25:59.492Z,86.33
2022-08-05T18:26:58.156Z,87.02
2022-08-05T18:27:57.898Z,87.21
2022-08-05T18:28:57.978Z,88.18
2022-08-05T18:29:58.010Z,87.60
2022-08-05T18:30:58.088Z,87.60
2022-08-05T18:31:58.181Z,86.33
2022-08-05T18:33:00.200Z,86.63
2022-08-05T18:33:58.227Z,86.68
2022-08-05T18:34:58.302Z,87.75
2022-08-05T18:36:03.464Z,87.07
2022-08-05T18:36:58.419Z,87.16
2022-08-05T18:37:58.461Z,85.52
2022-08-05T18:38:58.545Z,86.00
2022-08-05T18:41:52.671Z,86.19
2022-08-05T18:41:57.226Z,87.16
2022-08-05T18:42:04.779Z,87.26
2022-08-05T18:42:58.869Z,86.49
2022-08-05T18:44:06.637Z,87.07
2022-08-05T18:44:58.841Z,87.46
2022-08-05T18:45:58.889Z,87.36